Airfield :
LOGIN :

Register | Disclaimer

   EN    FR    IT 

 










Legend :    VFR   Marginal VFR   IFR   Intensive IFR   Very Intensive IFR
Visi :
Ceiling :
>= 8 km
>= 3000ft
5 to 8 km
1000 to 3000 ft
1500m to 5 km
500 to 1000 ft
800 to 1500m
200 to 500 ft
< 800m
< 200 ft
Symbols :   Thunderstorms  Fog  Heavy snow  Heavy precipitations  Wind > 20 kt
SIGMETs :     Misc.  Thunderstorms  Icing  Turbulence  Mountain Waves  Volcanic Ashes






- Airport Elevation : 93 ft
- IATA code : XRY


LEJR - Jerez

CURRENT METAR :
  • 030030Z AUTO 00000KT CAVOK 15/14 Q1015

EXPIRED METARs :
  • 030000Z AUTO 08003KT CAVOK 16/14 Q1015
  • 022330Z AUTO 08002KT CAVOK 16/14 Q1015
  • 022300Z AUTO 13002KT CAVOK 17/15 Q1015
  • 022230Z AUTO 00000KT CAVOK 18/15 Q1015
  • 022200Z AUTO VRB01KT CAVOK 18/15 Q1015

TAF TAF LEJR
Valid from the 03 at 00:00 until the 04 at 00:00 UTC


022300Z 0300/0324 VRB02KT 9999 FEW045 TX29/0314Z TN14/0305Z
PROB40
TEMPO 0303/0308 3000 BR BCFG BKN005
BECMG 0308/0310 26012KT



MET'MAP, your aeronautical weather chart ! - Copyright ORBIFLY December 2007 - Disclaimer

ORBIFLY MET'MAP TEAM :

Programming & Development : Alexandra Zaïnal
Concept & original design : Baudouin d'Aumeries
Assistance for programming : Marc-Olivier Méhu
Technical & hardware support : Manuel Goepfert

Contact : metmap@orbifly.com




SOURCES & CREDITS :

   NOAA